createdAt,value
2023-09-10T00:02:00.293Z,5.10
2023-09-10T00:05:03.488Z,5.57
2023-09-10T00:08:06.600Z,5.07
2023-09-10T00:11:09.468Z,5.18
2023-09-10T00:14:12.397Z,5.28
2023-09-10T00:17:15.191Z,5.50
2023-09-10T00:20:18.002Z,4.82
2023-09-10T00:23:21.759Z,5.45
2023-09-10T00:26:26.297Z,5.15
2023-09-10T00:29:29.393Z,4.57
2023-09-10T00:32:32.306Z,5.30
2023-09-10T00:35:35.180Z,4.43
2023-09-10T00:38:39.030Z,5.25
2023-09-10T00:41:42.072Z,5.03
2023-09-10T00:44:44.919Z,5.32
2023-09-10T00:47:48.450Z,5.27
2023-09-10T00:50:52.102Z,5.22
2023-09-10T00:53:55.791Z,5.53
2023-09-10T00:56:59.181Z,5.57
2023-09-10T01:00:02.237Z,4.80
2023-09-10T01:03:07.660Z,5.20
2023-09-10T01:06:10.901Z,5.38
2023-09-10T01:09:13.950Z,4.90
2023-09-10T01:12:26.492Z,5.38
2023-09-10T01:15:36.356Z,5.40
2023-09-10T01:18:51.226Z,4.97
2023-09-10T01:22:01.708Z,5.38
2023-09-10T01:25:05.337Z,5.07
2023-09-10T01:28:08.173Z,5.25
2023-09-10T01:31:11.184Z,5.18
2023-09-10T01:34:17.228Z,5.03
2023-09-10T01:37:46.590Z,5.68
2023-09-10T01:41:18.099Z,5.70
2023-09-10T01:44:24.362Z,5.18
2023-09-10T01:47:27.569Z,5.00
2023-09-10T01:50:31.255Z,4.97
2023-09-10T01:53:34.564Z,5.72
2023-09-10T01:56:37.311Z,5.43
2023-09-10T01:59:40.019Z,5.68
2023-09-10T02:02:42.864Z,5.63
2023-09-10T02:05:45.784Z,4.57
2023-09-10T02:08:48.476Z,6.00
2023-09-10T02:11:51.254Z,5.78
2023-09-10T02:14:54.007Z,4.75
2023-09-10T02:17:58.072Z,5.28
2023-09-10T02:21:00.854Z,4.67
2023-09-10T02:24:03.930Z,5.55
2023-09-10T02:27:06.692Z,5.28
2023-09-10T02:30:09.849Z,5.18
2023-09-10T02:33:12.698Z,5.00
2023-09-10T02:36:15.484Z,5.13
2023-09-10T02:39:18.189Z,4.68
2023-09-10T02:42:21.186Z,5.65
2023-09-10T02:45:23.959Z,5.75
2023-09-10T02:48:27.000Z,5.60
2023-09-10T02:51:30.365Z,5.50
2023-09-10T02:54:35.816Z,5.28
2023-09-10T02:57:39.068Z,5.47
2023-09-10T03:00:41.759Z,5.70
2023-09-10T03:03:44.575Z,5.82
2023-09-10T03:06:49.274Z,4.80
2023-09-10T03:09:52.187Z,4.90
2023-09-10T03:12:55.005Z,5.13
2023-09-10T03:15:57.794Z,5.45
2023-09-10T03:19:01.025Z,5.43
2023-09-10T03:22:04.110Z,4.97
2023-09-10T03:25:07.637Z,5.55
2023-09-10T03:28:10.768Z,5.45
2023-09-10T03:31:14.007Z,5.65
2023-09-10T03:34:17.040Z,5.18
2023-09-10T03:37:19.897Z,5.30
2023-09-10T03:40:22.757Z,5.90
2023-09-10T03:43:25.555Z,4.93
2023-09-10T03:46:29.938Z,5.90
2023-09-10T03:49:32.866Z,6.13
2023-09-10T03:52:35.644Z,6.47
2023-09-10T03:55:38.431Z,6.53
2023-09-10T03:58:41.604Z,6.97
2023-09-10T04:01:44.755Z,7.90
2023-09-10T04:04:48.460Z,6.85
2023-09-10T04:07:51.244Z,6.73
2023-09-10T04:10:53.973Z,6.00
2023-09-10T04:13:56.672Z,6.68
2023-09-10T04:16:59.434Z,6.80
2023-09-10T04:20:02.210Z,6.25
2023-09-10T04:23:05.146Z,6.43
2023-09-10T04:26:08.214Z,6.07
2023-09-10T04:29:11.171Z,6.90
2023-09-10T04:32:14.184Z,6.55
2023-09-10T04:35:17.630Z,5.97
2023-09-10T04:38:21.227Z,6.63
2023-09-10T04:41:24.081Z,6.53
2023-09-10T04:44:27.102Z,6.68
2023-09-10T04:47:30.231Z,6.32
2023-09-10T04:50:33.119Z,6.85
2023-09-10T04:53:37.142Z,6.30
2023-09-10T04:56:39.957Z,6.93
2023-09-10T04:59:43.877Z,8.63
2023-09-10T05:02:48.520Z,6.65
2023-09-10T05:06:01.352Z,6.78
2023-09-10T05:09:04.730Z,6.70
2023-09-10T05:12:07.667Z,6.60
2023-09-10T05:15:12.227Z,6.43
2023-09-10T05:18:16.134Z,7.20
2023-09-10T05:21:18.987Z,7.00
2023-09-10T05:24:21.782Z,7.17
2023-09-10T05:27:24.751Z,6.57
2023-09-10T05:30:27.580Z,6.15
2023-09-10T05:33:30.439Z,5.85
2023-09-10T05:36:34.160Z,5.75
2023-09-10T05:39:36.951Z,5.90
2023-09-10T05:42:39.945Z,5.65
2023-09-10T05:45:43.098Z,5.97
2023-09-10T05:48:46.479Z,5.88
2023-09-10T05:51:49.315Z,5.65
2023-09-10T05:54:52.236Z,5.70
2023-09-10T05:57:55.016Z,5.68
2023-09-10T06:00:58.467Z,6.60
2023-09-10T06:04:01.507Z,5.72
2023-09-10T06:07:05.197Z,6.05
2023-09-10T06:10:10.640Z,6.00
2023-09-10T06:13:14.607Z,6.28
2023-09-10T06:16:18.175Z,5.53
2023-09-10T06:19:21.089Z,6.38
2023-09-10T06:22:23.850Z,5.90
2023-09-10T06:25:27.197Z,6.27
2023-09-10T06:28:30.230Z,5.72
2023-09-10T06:31:33.954Z,5.65
2023-09-10T06:34:36.905Z,5.60
2023-09-10T06:37:40.926Z,6.00
2023-09-10T06:40:43.833Z,5.33
2023-09-10T06:43:46.902Z,5.57
2023-09-10T06:46:53.049Z,5.55
2023-09-10T06:49:55.804Z,5.80
2023-09-10T06:52:58.590Z,5.35
2023-09-10T06:56:01.370Z,5.60
2023-09-10T06:59:04.160Z,5.65
2023-09-10T07:02:07.637Z,5.55
2023-09-10T07:05:11.328Z,4.70
2023-09-10T07:08:14.240Z,5.82
2023-09-10T07:11:17.045Z,5.30
2023-09-10T07:14:21.231Z,5.43
2023-09-10T07:17:24.102Z,6.10
2023-09-10T07:20:27.078Z,5.55
2023-09-10T07:23:30.329Z,4.85
2023-09-10T07:26:33.439Z,5.23
2023-09-10T07:29:36.177Z,5.43
2023-09-10T07:32:39.723Z,5.50
2023-09-10T07:35:42.483Z,5.28
2023-09-10T07:38:45.434Z,4.55
2023-09-10T07:41:48.184Z,5.27
2023-09-10T07:44:50.906Z,5.30
2023-09-10T07:47:53.745Z,5.03
2023-09-10T07:50:57.754Z,4.97
2023-09-10T07:54:00.583Z,5.28
2023-09-10T07:57:04.778Z,4.70
2023-09-10T08:00:09.797Z,4.43
2023-09-10T08:03:19.225Z,4.70
2023-09-10T08:06:22.665Z,5.32
2023-09-10T08:09:25.643Z,5.00
2023-09-10T08:12:28.540Z,4.43
2023-09-10T08:15:32.697Z,4.65
2023-09-10T08:18:35.516Z,4.68
2023-09-10T08:21:38.314Z,5.40
2023-09-10T08:24:41.102Z,4.75
2023-09-10T08:27:43.877Z,5.10
2023-09-10T08:30:47.100Z,5.05
2023-09-10T08:33:50.008Z,5.35
2023-09-10T08:36:52.729Z,4.93
2023-09-10T08:39:55.531Z,5.35
2023-09-10T08:43:19.521Z,5.53
2023-09-10T08:46:24.177Z,5.30
2023-09-10T08:49:28.864Z,4.90
2023-09-10T08:52:33.043Z,5.47
2023-09-10T08:55:36.856Z,4.88
2023-09-10T08:58:41.710Z,5.23
2023-09-10T09:01:45.945Z,5.13
2023-09-10T09:04:48.893Z,4.80
2023-09-10T09:07:58.796Z,4.95
2023-09-10T09:11:06.802Z,5.20
2023-09-10T09:14:10.817Z,4.50
2023-09-10T09:17:15.411Z,4.30
2023-09-10T09:20:20.647Z,4.55
2023-09-10T09:23:32.838Z,4.70
2023-09-10T09:26:37.648Z,4.50
2023-09-10T09:29:40.701Z,4.43
2023-09-10T09:32:46.419Z,4.60
2023-09-10T09:35:49.212Z,4.85
2023-09-10T09:38:52.087Z,4.72
2023-09-10T09:41:55.708Z,4.25
2023-09-10T09:45:01.666Z,4.47
2023-09-10T09:48:05.389Z,4.25
2023-09-10T09:51:08.321Z,4.55
2023-09-10T09:54:12.450Z,4.18
2023-09-10T09:57:18.352Z,3.83
2023-09-10T10:00:23.383Z,4.03
2023-09-10T10:03:26.529Z,4.28
2023-09-10T10:06:31.196Z,4.72
2023-09-10T10:09:37.018Z,4.38
2023-09-10T10:12:41.730Z,4.40
2023-09-10T10:15:49.472Z,4.60
2023-09-10T10:18:54.570Z,4.15
2023-09-10T10:21:57.826Z,4.72
2023-09-10T10:25:02.042Z,4.78
2023-09-10T10:28:09.289Z,4.40
2023-09-10T10:31:12.056Z,4.57
2023-09-10T10:34:27.763Z,4.47
2023-09-10T10:38:03.104Z,4.55
2023-09-10T10:41:15.350Z,4.72
2023-09-10T10:44:18.053Z,4.13
2023-09-10T10:47:24.263Z,4.87
2023-09-10T10:50:32.375Z,4.15
2023-09-10T10:53:37.118Z,4.50
2023-09-10T10:56:40.146Z,4.60
2023-09-10T10:59:43.062Z,4.82
2023-09-10T11:02:49.298Z,4.47
2023-09-10T11:05:55.080Z,4.55
2023-09-10T11:08:57.887Z,4.72
2023-09-10T11:12:07.640Z,4.53
2023-09-10T11:15:12.000Z,4.85
2023-09-10T11:18:36.444Z,4.27
2023-09-10T11:21:57.495Z,4.80
2023-09-10T11:25:07.303Z,4.80
2023-09-10T11:28:43.898Z,4.55
2023-09-10T11:31:53.644Z,4.65
2023-09-10T11:35:18.127Z,5.30
2023-09-10T11:38:22.266Z,4.40
2023-09-10T11:41:25.075Z,4.50
2023-09-10T11:44:27.953Z,5.18
2023-09-10T11:47:31.067Z,4.85
2023-09-10T11:50:34.636Z,4.87
2023-09-10T11:53:37.619Z,4.63
2023-09-10T11:56:42.039Z,4.57
2023-09-10T11:59:51.468Z,4.75
2023-09-10T12:02:57.166Z,5.05
2023-09-10T12:06:00.905Z,4.67
2023-09-10T12:09:03.740Z,4.85
2023-09-10T12:12:14.076Z,4.38
2023-09-10T12:15:17.142Z,5.10
2023-09-10T12:18:22.388Z,4.90
2023-09-10T12:21:25.717Z,5.00
2023-09-10T12:24:28.501Z,4.65
2023-09-10T12:27:31.225Z,4.53
2023-09-10T12:30:35.153Z,4.15
2023-09-10T12:33:38.306Z,4.70
2023-09-10T12:36:42.780Z,5.40
2023-09-10T12:39:46.471Z,4.65
2023-09-10T12:42:52.589Z,5.32
2023-09-10T12:45:56.409Z,4.35
2023-09-10T12:48:59.228Z,4.78
2023-09-10T12:52:02.082Z,4.80
2023-09-10T12:55:05.485Z,4.78
2023-09-10T12:58:18.450Z,4.50
2023-09-10T13:01:26.642Z,4.60
2023-09-10T13:04:29.383Z,4.35
2023-09-10T13:07:32.246Z,4.50
2023-09-10T13:10:35.017Z,4.40
2023-09-10T13:13:38.069Z,4.63
2023-09-10T13:16:41.062Z,3.70
2023-09-10T13:19:43.926Z,4.00
2023-09-10T13:22:46.808Z,4.50
2023-09-10T13:25:49.737Z,4.43
2023-09-10T13:28:52.464Z,4.47
2023-09-10T13:31:55.268Z,4.22
2023-09-10T13:34:58.045Z,4.65
2023-09-10T13:38:00.846Z,4.40
2023-09-10T13:41:03.684Z,4.07
2023-09-10T13:44:06.622Z,4.78
2023-09-10T13:47:09.507Z,4.10
2023-09-10T13:50:15.175Z,4.55
2023-09-10T13:53:18.041Z,4.47
2023-09-10T13:56:20.822Z,4.53
2023-09-10T13:59:23.712Z,4.55
2023-09-10T14:02:26.602Z,4.60
2023-09-10T14:05:31.902Z,4.53
2023-09-10T14:08:35.520Z,4.50
2023-09-10T14:11:38.338Z,4.57
2023-09-10T14:14:41.149Z,4.53
2023-09-10T14:17:43.947Z,4.32
2023-09-10T14:20:46.743Z,5.25
2023-09-10T14:23:49.643Z,4.27
2023-09-10T14:26:53.463Z,4.50
2023-09-10T14:29:56.277Z,4.70
2023-09-10T14:32:59.186Z,4.18
2023-09-10T14:36:02.053Z,4.95
2023-09-10T14:39:04.980Z,4.63
2023-09-10T14:42:07.774Z,4.60
2023-09-10T14:45:10.931Z,4.88
2023-09-10T14:48:14.113Z,4.32
2023-09-10T14:51:16.999Z,4.70
2023-09-10T14:54:19.851Z,4.60
2023-09-10T14:57:22.597Z,4.25
2023-09-10T15:00:25.437Z,4.60
2023-09-10T15:03:28.233Z,4.65
2023-09-10T15:06:31.261Z,4.45
2023-09-10T15:09:34.065Z,4.23
2023-09-10T15:12:36.841Z,4.20
2023-09-10T15:15:39.561Z,4.70
2023-09-10T15:18:42.294Z,3.83
2023-09-10T15:21:45.047Z,4.80
2023-09-10T15:24:47.744Z,3.73
2023-09-10T15:27:50.769Z,3.88
2023-09-10T15:30:53.571Z,4.57
2023-09-10T15:33:56.251Z,4.05
2023-09-10T15:36:59.050Z,4.55
2023-09-10T15:40:01.771Z,3.77
2023-09-10T15:43:04.843Z,4.25
2023-09-10T15:46:07.635Z,4.15
2023-09-10T15:49:10.770Z,4.10
2023-09-10T15:52:14.401Z,4.65
2023-09-10T15:55:17.199Z,4.90
2023-09-10T15:58:20.032Z,3.95
2023-09-10T16:01:22.923Z,4.72
2023-09-10T16:04:25.694Z,3.90
2023-09-10T16:07:28.453Z,4.32
2023-09-10T16:10:31.197Z,4.10
2023-09-10T16:13:34.278Z,4.00
2023-09-10T16:16:37.378Z,4.10
2023-09-10T16:19:40.714Z,3.40
2023-09-10T16:22:43.669Z,3.70
2023-09-10T16:25:46.399Z,4.00
2023-09-10T16:28:49.233Z,4.20
2023-09-10T16:31:51.992Z,3.90
2023-09-10T16:34:54.728Z,4.00
2023-09-10T16:37:57.467Z,3.97
2023-09-10T16:41:00.279Z,4.27
2023-09-10T16:44:03.133Z,3.80
2023-09-10T16:47:05.987Z,4.80
2023-09-10T16:50:11.653Z,3.92
2023-09-10T16:53:14.558Z,3.80
2023-09-10T16:56:17.302Z,3.93
2023-09-10T16:59:20.144Z,4.38
2023-09-10T17:02:23.010Z,4.30
2023-09-10T17:05:29.130Z,4.50
2023-09-10T17:08:31.942Z,4.50
2023-09-10T17:11:34.788Z,4.37
2023-09-10T17:14:37.644Z,4.03
2023-09-10T17:17:40.659Z,4.07
2023-09-10T17:20:43.903Z,4.43
2023-09-10T17:23:49.911Z,3.97
2023-09-10T17:26:53.089Z,3.67
2023-09-10T17:29:56.070Z,4.47
2023-09-10T17:32:58.889Z,4.53
2023-09-10T17:36:01.700Z,3.85
2023-09-10T17:39:04.755Z,3.83
2023-09-10T17:42:07.571Z,3.87
2023-09-10T17:45:10.412Z,4.00
2023-09-10T17:48:13.277Z,4.78
2023-09-10T17:51:20.775Z,4.70
2023-09-10T17:54:23.809Z,4.25
2023-09-10T17:57:26.568Z,3.97
2023-09-10T18:00:29.399Z,4.25
2023-09-10T18:03:32.444Z,4.57
2023-09-10T18:06:35.340Z,4.00
2023-09-10T18:09:38.267Z,3.90
2023-09-10T18:12:41.164Z,4.20
2023-09-10T18:15:43.937Z,4.05
2023-09-10T18:18:47.029Z,4.32
2023-09-10T18:21:52.396Z,4.18
2023-09-10T18:24:55.342Z,4.53
2023-09-10T18:27:58.107Z,4.70
2023-09-10T18:31:03.336Z,4.35
2023-09-10T18:34:06.130Z,4.30
2023-09-10T18:37:08.892Z,4.10
2023-09-10T18:40:12.004Z,4.85
2023-09-10T18:43:15.080Z,4.37
2023-09-10T18:46:18.256Z,4.28
2023-09-10T18:49:22.013Z,4.40
2023-09-10T18:52:26.159Z,4.18
2023-09-10T18:55:29.223Z,4.30
2023-09-10T18:58:32.257Z,4.93
2023-09-10T19:01:35.146Z,4.57
2023-09-10T19:04:38.670Z,4.78
2023-09-10T19:07:41.414Z,4.68
2023-09-10T19:10:44.457Z,4.50
2023-09-10T19:13:47.179Z,4.40
2023-09-10T19:16:50.369Z,4.78
2023-09-10T19:19:53.467Z,4.50
2023-09-10T19:22:56.203Z,5.00
2023-09-10T19:25:59.143Z,4.78
2023-09-10T19:29:02.202Z,4.90
2023-09-10T19:32:05.213Z,4.20
2023-09-10T19:35:08.630Z,4.70
2023-09-10T19:38:11.460Z,4.85
2023-09-10T19:41:14.337Z,4.60
2023-09-10T19:44:17.251Z,4.17
2023-09-10T19:47:20.052Z,4.38
2023-09-10T19:50:23.078Z,4.50
2023-09-10T19:53:25.903Z,3.95
2023-09-10T19:56:28.829Z,4.28
2023-09-10T19:59:32.912Z,4.30
2023-09-10T20:02:36.114Z,4.45
2023-09-10T20:05:40.686Z,4.10
2023-09-10T20:08:43.546Z,4.40
2023-09-10T20:11:46.671Z,3.75
2023-09-10T20:14:49.438Z,4.03
2023-09-10T20:17:52.804Z,4.13
2023-09-10T20:20:56.282Z,4.10
2023-09-10T20:23:59.083Z,4.30
2023-09-10T20:27:01.931Z,4.20
2023-09-10T20:30:05.321Z,4.40
2023-09-10T20:33:08.189Z,4.10
2023-09-10T20:36:11.032Z,4.38
2023-09-10T20:39:13.957Z,3.90
2023-09-10T20:42:16.754Z,4.90
2023-09-10T20:45:19.688Z,4.37
2023-09-10T20:48:23.721Z,4.28
2023-09-10T20:51:32.957Z,4.47
2023-09-10T20:54:35.765Z,4.15
2023-09-10T20:57:38.497Z,3.97
2023-09-10T21:00:41.798Z,4.30
2023-09-10T21:03:44.731Z,4.10
2023-09-10T21:06:47.964Z,4.65
2023-09-10T21:09:52.826Z,3.75
2023-09-10T21:13:06.448Z,3.80
2023-09-10T21:16:15.110Z,4.30
2023-09-10T21:19:17.859Z,3.70
2023-09-10T21:22:21.147Z,3.95
2023-09-10T21:25:23.965Z,4.20
2023-09-10T21:28:26.824Z,4.45
2023-09-10T21:31:29.567Z,4.13
2023-09-10T21:34:32.387Z,3.92
2023-09-10T21:37:35.164Z,4.40
2023-09-10T21:40:37.934Z,4.10
2023-09-10T21:43:40.659Z,4.30
2023-09-10T21:46:43.359Z,4.43
2023-09-10T21:49:46.096Z,4.30
2023-09-10T21:52:48.831Z,4.20
2023-09-10T21:55:51.568Z,4.03
2023-09-10T21:58:54.242Z,4.68
2023-09-10T22:01:57.039Z,4.30
2023-09-10T22:05:00.309Z,4.30
2023-09-10T22:08:03.218Z,4.30
2023-09-10T22:11:06.805Z,4.40
2023-09-10T22:14:09.685Z,3.70
2023-09-10T22:17:12.414Z,3.67
2023-09-10T22:20:15.214Z,3.70
2023-09-10T22:23:18.266Z,3.95
2023-09-10T22:26:21.029Z,4.13
2023-09-10T22:29:23.778Z,4.20
2023-09-10T22:32:26.589Z,3.77
2023-09-10T22:35:29.747Z,3.70
2023-09-10T22:38:32.564Z,3.50
2023-09-10T22:41:35.516Z,3.60
2023-09-10T22:44:38.364Z,4.07
2023-09-10T22:47:43.203Z,5.10
2023-09-10T22:50:46.251Z,3.60
2023-09-10T22:53:52.393Z,4.43
2023-09-10T22:56:55.517Z,4.80
2023-09-10T22:59:58.265Z,4.22
2023-09-10T23:03:01.119Z,3.53
2023-09-10T23:06:05.007Z,4.20
2023-09-10T23:09:07.768Z,4.22
2023-09-10T23:12:10.641Z,4.28
2023-09-10T23:15:13.367Z,4.53
2023-09-10T23:18:16.194Z,4.20
2023-09-10T23:21:19.009Z,4.28
2023-09-10T23:24:21.778Z,3.75
2023-09-10T23:27:25.019Z,4.00
2023-09-10T23:30:27.897Z,4.13
2023-09-10T23:33:30.626Z,4.00
2023-09-10T23:36:33.455Z,4.20
2023-09-10T23:39:36.158Z,4.55
2023-09-10T23:42:40.353Z,4.88
2023-09-10T23:45:43.186Z,3.97
2023-09-10T23:48:45.897Z,4.23
2023-09-10T23:51:48.934Z,3.88
2023-09-10T23:54:51.655Z,4.20
2023-09-10T23:57:54.354Z,4.10
